Time;durP1;ratioP1;P1;durP2;ratioP2;P2;SDS_P1;SDS_P2;PMS_P1;PMS_P2;Temp;Humidity;BMP_temperature;BMP_pressure;BME280_temperature;BME280_humidity;BME280_pressure;Samples;Min_cycle;Max_cycle;Signal;HPM_P1;HPM_P2
2023/12/19 00:00:45;;;;;;;24.93;18.87;;;2.70;86.00;;;4.86;60.04;98787.09;5033691;28;20049;-68
2023/12/19 00:03:13;;;;;;;12.47;9.77;;;2.70;86.50;;;4.85;59.86;98781.94;5033596;28;20045;-68
2023/12/19 00:05:41;;;;;;;7.70;6.17;;;2.80;86.10;;;4.91;60.26;98787.66;5033577;28;20477;-68
2023/12/19 00:08:09;;;;;;;7.70;5.20;;;2.90;85.30;;;4.98;59.73;98784.59;5031673;28;20049;-68
2023/12/19 00:10:36;;;;;;;8.23;4.63;;;3.00;84.80;;;5.05;59.97;98789.41;5033617;28;20046;-68
2023/12/19 00:13:04;;;;;;;10.77;4.90;;;3.10;84.40;;;5.10;59.94;98789.13;5033129;28;20386;-68
2023/12/19 00:15:32;;;;;;;7.90;4.87;;;3.20;83.70;;;5.13;60.02;98779.19;5033412;28;20052;-68
2023/12/19 00:18:01;;;;;;;8.43;4.27;;;3.30;83.40;;;5.20;59.85;98776.19;5033151;28;20045;-69
2023/12/19 00:20:29;;;;;;;6.43;5.27;;;3.40;83.60;;;5.26;59.79;98766.03;5031963;28;20053;-68
2023/12/19 00:22:56;;;;;;;6.80;4.67;;;3.40;83.10;;;5.33;59.64;98748.00;5033334;28;20404;-68
2023/12/19 00:25:24;;;;;;;6.77;4.27;;;3.50;82.90;;;5.40;59.53;98737.88;5033404;28;20045;-68
2023/12/19 00:27:52;;;;;;;8.30;4.93;;;3.60;82.60;;;5.43;59.71;98735.03;5025003;28;20041;-68
2023/12/19 00:30:19;;;;;;;7.07;5.13;;;3.60;82.10;;;5.44;59.40;98721.72;5032149;28;20046;-68
2023/12/19 00:32:47;;;;;;;6.83;4.17;;;3.50;81.90;;;5.44;59.48;98720.88;5031680;28;20037;-68
2023/12/19 00:35:15;;;;;;;10.50;4.70;;;3.50;81.90;;;5.43;58.96;98724.47;5033450;28;20400;-68
2023/12/19 00:37:43;;;;;;;8.40;4.90;;;3.50;81.50;;;5.43;58.78;98737.66;5032724;28;20046;-68
2023/12/19 00:40:14;;;;;;;7.07;4.43;;;3.40;81.80;;;5.41;58.98;98731.63;5032409;28;20490;-68
2023/12/19 00:42:42;;;;;;;8.70;5.47;;;3.40;81.00;;;5.40;58.78;98738.72;5031562;28;20493;-68
2023/12/19 00:45:10;;;;;;;6.37;4.80;;;3.40;81.50;;;5.41;59.02;98734.28;5031529;28;20056;-68
2023/12/19 00:47:39;;;;;;;6.40;4.47;;;3.40;81.10;;;5.40;58.90;98740.53;5032537;28;20041;-68
2023/12/19 00:50:07;;;;;;;7.47;4.57;;;3.40;81.00;;;5.37;58.92;98741.59;5032900;28;20048;-68
2023/12/19 00:52:35;;;;;;;20.23;8.40;;;3.30;81.40;;;5.35;58.51;98743.50;5032027;28;20037;-68
2023/12/19 00:55:04;;;;;;;49.63;20.30;;;3.30;80.60;;;5.29;58.67;98743.88;5032634;28;20048;-68
2023/12/19 00:57:32;;;;;;;16.80;9.80;;;3.10;81.00;;;5.21;58.01;98733.81;5032269;28;20076;-67
2023/12/19 01:00:00;;;;;;;8.93;5.10;;;3.00;81.00;;;5.11;58.22;98733.56;5032581;28;20045;-68
2023/12/19 01:02:31;;;;;;;7.37;4.97;;;2.90;81.70;;;5.04;58.35;98734.94;5032566;28;20045;-68
2023/12/19 01:04:58;;;;;;;7.00;4.60;;;2.80;81.90;;;4.99;58.41;98744.94;5032443;28;20413;-68
2023/12/19 01:07:26;;;;;;;8.27;4.43;;;2.80;82.60;;;4.96;59.06;98733.72;5032175;28;20049;-68
2023/12/19 01:09:54;;;;;;;10.03;5.83;;;2.70;82.30;;;4.91;58.65;98745.41;5024342;28;20386;-68
2023/12/19 01:12:21;;;;;;;17.60;11.27;;;2.70;81.90;;;4.88;58.44;98752.69;5032386;28;20037;-68
2023/12/19 01:14:49;;;;;;;12.70;6.50;;;2.70;83.00;;;4.89;58.82;98749.13;5032032;28;20064;-68
2023/12/19 01:17:17;;;;;;;15.47;7.43;;;2.70;82.90;;;4.84;58.26;98748.56;5031965;28;20424;-68
2023/12/19 01:19:45;;;;;;;12.57;6.03;;;2.70;82.20;;;4.81;58.09;98756.66;5031250;28;20045;-68
2023/12/19 01:22:12;;;;;;;22.20;11.70;;;2.60;81.90;;;4.76;58.34;98761.38;5032177;28;20045;-67
2023/12/19 01:24:40;;;;;;;10.53;6.50;;;2.60;82.10;;;4.64;58.87;98752.47;5030916;28;20429;-68
2023/12/19 01:27:08;;;;;;;9.83;6.97;;;2.40;82.20;;;4.55;59.03;98769.69;5031513;28;20052;-69
2023/12/19 01:29:35;;;;;;;12.40;7.83;;;2.30;83.60;;;4.44;58.26;98753.69;5032038;28;20049;-68
2023/12/19 01:32:03;;;;;;;11.23;7.80;;;2.10;84.30;;;4.38;59.13;98762.84;5031959;28;20037;-68
2023/12/19 01:34:32;;;;;;;10.93;7.63;;;2.00;85.10;;;4.34;58.49;98766.59;5031941;28;20045;-68
2023/12/19 01:37:00;;;;;;;10.00;7.00;;;2.00;84.90;;;4.26;58.89;98759.16;5029450;28;20049;-68
2023/12/19 01:39:27;;;;;;;9.00;7.37;;;2.00;84.90;;;4.21;58.42;98753.34;5032025;28;20049;-68
2023/12/19 01:41:55;;;;;;;14.33;7.60;;;1.90;84.90;;;4.12;58.46;98746.84;5031816;28;20398;-68
2023/12/19 01:44:23;;;;;;;10.83;7.73;;;1.80;85.20;;;4.05;58.75;98744.66;5031955;28;20068;-68
2023/12/19 01:46:50;;;;;;;12.30;7.10;;;1.70;85.90;;;4.00;59.20;98738.84;5031520;28;20046;-68
2023/12/19 01:49:18;;;;;;;12.03;8.00;;;1.70;86.50;;;4.00;59.16;98746.75;5031619;28;20048;-68
2023/12/19 01:51:46;;;;;;;8.73;6.97;;;1.70;85.90;;;4.00;59.19;98742.31;5031263;28;20049;-68
2023/12/19 01:54:15;;;;;;;10.70;8.13;;;1.80;86.40;;;4.02;58.88;98763.31;5030606;28;20398;-68
2023/12/19 01:56:43;;;;;;;13.40;8.37;;;1.80;85.80;;;4.01;59.41;98770.34;5030547;28;20068;-68
2023/12/19 01:59:12;;;;;;;9.77;7.13;;;1.80;85.50;;;3.96;59.15;98769.78;5030620;28;20390;-68
2023/12/19 02:01:40;;;;;;;10.60;7.43;;;1.80;84.70;;;3.93;59.21;98772.59;5030272;28;20505;-67
2023/12/19 02:04:09;;;;;;;11.70;7.87;;;1.70;85.20;;;3.89;59.64;98761.41;5013166;28;20052;-67
2023/12/19 02:06:37;;;;;;;11.10;7.43;;;1.70;85.70;;;3.87;59.29;98758.00;5030259;28;20050;-69
2023/12/19 02:09:06;;;;;;;9.60;6.30;;;1.60;85.40;;;3.83;59.37;98747.75;5030877;28;20046;-68
2023/12/19 02:11:34;;;;;;;10.10;6.60;;;1.60;86.00;;;3.82;59.58;98752.19;5031393;28;20042;-68
2023/12/19 02:14:01;;;;;;;9.80;6.77;;;1.60;86.00;;;3.81;59.04;98750.47;5030318;28;20412;-69
2023/12/19 02:16:29;;;;;;;8.73;6.70;;;1.60;85.70;;;3.79;59.30;98738.34;5031240;28;20050;-68
2023/12/19 02:19:04;;;;;;;8.87;6.43;;;1.60;85.90;;;3.78;59.43;98740.13;5030912;28;20034;-68
2023/12/19 02:21:32;;;;;;;9.53;7.00;;;1.60;86.50;;;3.81;59.27;98741.72;5030102;28;20528;-68
2023/12/19 02:24:01;;;;;;;10.53;7.10;;;1.60;86.20;;;3.81;59.36;98760.19;5031087;28;20516;-68
2023/12/19 02:26:29;;;;;;;10.13;6.43;;;1.60;86.00;;;3.83;59.82;98740.69;5031253;28;20049;-68
2023/12/19 02:28:56;;;;;;;7.77;5.60;;;1.70;86.30;;;3.80;59.52;98722.47;5030735;28;20037;-68
2023/12/19 02:31:24;;;;;;;8.77;5.70;;;1.60;86.40;;;3.82;59.29;98724.97;5031081;28;20052;-69
2023/12/19 02:33:52;;;;;;;8.97;6.00;;;1.70;87.00;;;3.81;59.42;98723.28;5031226;28;20057;-68
2023/12/19 02:36:20;;;;;;;10.73;6.97;;;1.60;87.20;;;3.84;59.88;98726.59;5030476;28;20046;-67
2023/12/19 02:38:47;;;;;;;10.37;6.17;;;1.70;86.70;;;3.77;59.55;98734.97;5030616;28;20049;-68
2023/12/19 02:41:15;;;;;;;12.20;7.70;;;1.70;88.50;;;3.80;60.30;98721.59;5029208;28;20506;-68
2023/12/19 02:43:43;;;;;;;11.93;7.43;;;1.70;88.20;;;3.80;59.75;98713.69;5030879;28;20046;-68
2023/12/19 02:46:23;;;;;;;10.53;6.17;;;1.70;88.20;;;3.84;59.79;98725.72;5031033;28;20054;-68
2023/12/19 02:48:51;;;;;;;10.17;6.60;;;1.80;88.00;;;3.87;59.90;98726.41;5030552;28;20038;-68
2023/12/19 02:51:19;;;;;;;10.40;5.63;;;1.80;87.20;;;3.87;60.14;98723.75;5029677;28;20046;-68
2023/12/19 02:53:47;;;;;;;8.47;5.47;;;1.80;87.00;;;3.86;60.14;98737.03;5030588;28;20050;-68
2023/12/19 02:56:15;;;;;;;11.17;6.27;;;1.80;87.10;;;3.82;59.79;98735.50;5030914;28;20049;-68
2023/12/19 02:58:43;;;;;;;8.57;6.17;;;1.70;87.60;;;3.79;59.93;98712.84;5030705;28;20077;-68
2023/12/19 03:01:11;;;;;;;7.73;5.83;;;1.70;87.30;;;3.78;60.22;98729.59;5030754;28;20065;-69
2023/12/19 03:03:40;;;;;;;8.60;5.90;;;1.60;87.60;;;3.78;59.78;98734.88;5030819;28;20412;-68
2023/12/19 03:06:08;;;;;;;8.70;6.03;;;1.70;86.80;;;3.79;60.21;98736.56;5030808;28;20049;-68
2023/12/19 03:08:37;;;;;;;10.00;5.90;;;1.70;87.20;;;3.81;59.67;98725.94;5030470;28;20417;-69
2023/12/19 03:11:04;;;;;;;9.53;5.97;;;1.70;87.50;;;3.80;60.11;98722.47;5030994;28;20037;-68
2023/12/19 03:13:32;;;;;;;9.37;6.27;;;1.70;86.70;;;3.79;59.96;98725.19;5031021;28;20041;-68
2023/12/19 03:15:59;;;;;;;8.13;6.00;;;1.70;87.80;;;3.78;60.04;98712.94;5033743;28;22200;-68
2023/12/19 03:18:27;;;;;;;7.33;5.57;;;1.70;87.70;;;3.74;60.39;98701.72;5034007;28;20060;-68
2023/12/19 03:20:56;;;;;;;10.13;6.17;;;1.60;87.80;;;3.72;60.33;98691.31;5034229;28;20056;-68
2023/12/19 03:23:25;;;;;;;9.13;6.30;;;1.60;88.80;;;3.74;60.04;98692.06;5034503;28;20050;-68
2023/12/19 03:25:53;;;;;;;10.33;6.27;;;1.60;88.70;;;3.77;60.14;98691.03;5034155;28;20042;-68
2023/12/19 03:28:21;;;;;;;8.70;6.13;;;1.60;88.10;;;3.77;60.25;98687.53;5033855;28;20053;-68
2023/12/19 03:30:50;;;;;;;9.07;6.13;;;1.60;87.90;;;3.74;59.94;98685.94;5032826;28;20425;-68
2023/12/19 03:33:18;;;;;;;8.63;5.93;;;1.60;87.70;;;3.70;60.29;98692.31;5034118;28;20046;-68
2023/12/19 03:35:46;;;;;;;8.97;5.97;;;1.50;87.50;;;3.67;60.42;98685.47;5034145;28;20030;-68
2023/12/19 03:38:13;;;;;;;10.63;7.57;;;1.50;88.60;;;3.67;59.92;98679.34;5033924;28;20048;-68
2023/12/19 03:40:41;;;;;;;9.60;6.40;;;1.50;88.30;;;3.65;60.13;98681.22;5033316;28;20409;-68
2023/12/19 03:43:10;;;;;;;9.77;6.83;;;1.50;87.20;;;3.61;60.27;98670.03;5033640;28;20422;-68
2023/12/19 03:45:37;;;;;;;9.73;6.87;;;1.40;87.70;;;3.61;59.81;98662.13;5034029;28;20045;-68
2023/12/19 03:48:05;;;;;;;8.43;5.90;;;1.50;87.50;;;3.61;60.14;98664.75;5033241;28;20045;-68
2023/12/19 03:50:33;;;;;;;7.80;5.83;;;1.40;86.80;;;3.60;59.81;98667.50;5033844;28;20041;-68
2023/12/19 03:53:01;;;;;;;10.90;6.40;;;1.40;86.20;;;3.55;59.86;98654.59;5033859;28;20042;-68
2023/12/19 03:55:28;;;;;;;10.67;6.10;;;1.30;87.10;;;3.57;60.32;98646.59;5033812;28;20042;-69
2023/12/19 03:57:56;;;;;;;8.90;5.70;;;1.40;87.10;;;3.59;59.77;98650.84;5033020;28;20038;-69
2023/12/19 04:00:24;;;;;;;10.87;5.87;;;1.50;87.30;;;3.61;60.02;98651.59;5033823;28;20052;-68
2023/12/19 04:02:51;;;;;;;9.30;6.03;;;1.50;86.70;;;3.64;60.06;98654.03;5032341;28;20421;-68
2023/12/19 04:05:20;;;;;;;8.10;5.40;;;1.50;86.30;;;3.67;59.75;98650.38;5033547;28;20053;-68
2023/12/19 04:07:48;;;;;;;7.17;5.57;;;1.60;86.60;;;3.66;59.80;98652.16;5033239;28;20041;-68
2023/12/19 04:10:16;;;;;;;6.83;4.87;;;1.50;85.40;;;3.66;59.87;98653.94;5033357;28;20045;-68
2023/12/19 04:12:43;;;;;;;8.43;5.27;;;1.50;86.60;;;3.66;60.02;98656.56;5033246;28;20050;-68
2023/12/19 04:15:12;;;;;;;6.97;5.60;;;1.50;86.80;;;3.57;59.64;98647.47;5033409;28;20038;-68
2023/12/19 04:17:39;;;;;;;6.53;4.90;;;1.50;86.40;;;3.55;60.09;98642.28;5033078;28;20408;-68
2023/12/19 04:20:07;;;;;;;8.70;5.97;;;1.40;87.50;;;3.56;60.22;98645.75;5033273;28;20041;-69
2023/12/19 04:22:35;;;;;;;9.30;5.40;;;1.40;86.60;;;3.53;59.87;98646.78;5033087;28;20042;-68
2023/12/19 04:25:03;;;;;;;9.47;5.77;;;1.40;87.70;;;3.52;60.30;98646.88;5032893;28;20523;-68
2023/12/19 04:27:31;;;;;;;6.00;4.60;;;1.40;87.60;;;3.50;59.93;98644.34;5030899;28;20049;-68
2023/12/19 04:29:58;;;;;;;7.57;5.33;;;1.40;87.50;;;3.50;60.07;98654.88;5033165;28;20044;-68
2023/12/19 04:32:26;;;;;;;8.27;4.80;;;1.40;86.80;;;3.51;59.80;98659.22;5032859;28;20037;-68
2023/12/19 04:34:54;;;;;;;9.10;5.47;;;1.40;87.50;;;3.52;59.75;98660.88;5032806;28;20041;-68
2023/12/19 04:37:21;;;;;;;10.83;5.53;;;1.40;86.80;;;3.50;60.08;98654.88;5029861;28;20512;-68
2023/12/19 04:39:49;;;;;;;13.23;6.10;;;1.40;86.20;;;3.49;59.72;98637.38;5032166;28;20045;-68
2023/12/19 04:42:19;;;;;;;7.73;5.37;;;1.40;86.50;;;3.49;59.97;98626.84;5032708;28;20042;-68
2023/12/19 04:44:47;;;;;;;8.23;5.43;;;1.40;87.20;;;3.51;59.94;98624.97;5031533;28;20056;-69
2023/12/19 04:47:15;;;;;;;7.80;5.50;;;1.40;86.90;;;3.47;59.68;98620.84;5024609;28;20056;-68
2023/12/19 04:49:43;;;;;;;8.27;5.73;;;1.30;86.60;;;3.43;60.07;98611.44;5032631;28;20048;-68
2023/12/19 04:52:11;;;;;;;9.20;6.20;;;1.30;86.80;;;3.44;60.11;98622.81;5032535;28;20045;-68
2023/12/19 04:54:39;;;;;;;8.90;6.53;;;1.30;87.30;;;3.45;59.99;98622.72;5032318;28;20037;-69
2023/12/19 04:57:06;;;;;;;8.37;6.77;;;1.40;87.40;;;3.42;60.19;98612.38;5032339;28;20433;-68
2023/12/19 04:59:34;;;;;;;9.60;6.17;;;1.30;87.30;;;3.42;59.98;98612.38;5032545;28;20052;-68
2023/12/19 05:02:02;;;;;;;12.70;9.10;;;1.30;87.80;;;3.45;60.01;98606.94;5032372;28;20045;-68
2023/12/19 05:04:30;;;;;;;9.93;8.17;;;1.40;87.10;;;3.44;60.01;98597.31;5031239;28;20045;-68
2023/12/19 05:06:57;;;;;;;13.30;7.40;;;1.40;87.00;;;3.42;60.32;98595.72;5032175;28;20046;-68
2023/12/19 05:09:27;;;;;;;11.00;6.37;;;1.30;86.10;;;3.40;60.11;98587.09;5031950;28;20044;-68
2023/12/19 05:11:55;;;;;;;8.80;6.37;;;1.30;87.30;;;3.41;59.92;98591.38;5032379;28;20045;-69
2023/12/19 05:14:23;;;;;;;9.00;6.60;;;1.30;86.20;;;3.39;59.92;98609.91;5032276;28;20497;-69
2023/12/19 05:16:50;;;;;;;10.37;6.43;;;1.20;86.40;;;3.36;59.84;98607.47;5026771;28;20065;-68
2023/12/19 05:19:19;;;;;;;11.27;6.63;;;1.20;86.90;;;3.29;59.81;98608.78;5024278;28;20041;-68
2023/12/19 05:21:47;;;;;;;8.47;6.70;;;1.10;86.80;;;3.30;59.99;98603.44;5032074;28;20390;-68
2023/12/19 05:24:14;;;;;;;11.70;6.93;;;1.20;87.50;;;3.27;59.93;98614.13;5031688;28;20045;-68
2023/12/19 05:26:42;;;;;;;10.67;7.43;;;1.10;87.20;;;3.25;59.75;98596.75;5030761;28;20069;-68
2023/12/19 05:29:10;;;;;;;11.03;7.17;;;1.10;87.00;;;3.21;59.64;98590.81;5030223;28;20060;-68
2023/12/19 05:31:37;;;;;;;12.20;7.93;;;1.00;87.50;;;3.18;59.72;98585.75;5031816;28;20052;-68
2023/12/19 05:34:05;;;;;;;10.60;7.80;;;1.00;86.40;;;3.18;59.90;98593.63;5031764;28;20057;-68
2023/12/19 05:36:34;;;;;;;13.83;8.67;;;1.00;87.50;;;3.15;59.90;98589.38;5031993;28;20044;-68
2023/12/19 05:39:07;;;;;;;11.93;7.57;;;1.00;86.70;;;3.12;59.46;98586.09;5031403;28;20497;-69
2023/12/19 05:41:34;;;;;;;8.97;6.40;;;0.90;87.30;;;3.09;59.84;98579.22;5029726;28;20060;-68
2023/12/19 05:44:02;;;;;;;11.30;6.70;;;0.90;87.10;;;3.08;59.94;98589.84;5031609;28;20045;-67
2023/12/19 05:46:31;;;;;;;15.50;7.70;;;0.80;86.90;;;3.06;59.95;98586.47;5031785;28;20409;-69
2023/12/19 05:48:59;;;;;;;11.37;7.10;;;0.90;87.50;;;3.08;60.15;98592.47;5031061;28;20033;-68
2023/12/19 05:51:26;;;;;;;9.90;6.97;;;0.90;87.90;;;3.07;60.15;98586.38;5031521;28;20038;-68
2023/12/19 05:53:56;;;;;;;9.57;7.13;;;0.80;86.90;;;3.01;59.83;98585.91;5031520;28;20045;-69
2023/12/19 05:56:24;;;;;;;9.27;6.70;;;0.80;87.00;;;3.00;59.96;98590.28;5030532;28;20501;-68
2023/12/19 05:58:52;;;;;;;10.87;6.57;;;0.80;87.10;;;3.01;59.76;98596.44;5031034;28;20044;-68
2023/12/19 06:01:19;;;;;;;10.70;7.07;;;0.80;87.00;;;3.00;59.89;98599.97;5031274;28;20046;-67
2023/12/19 06:03:47;;;;;;;8.10;6.40;;;0.80;86.90;;;2.98;59.46;98602.69;5031384;28;20053;-69
2023/12/19 06:06:16;;;;;;;11.10;6.77;;;0.70;86.70;;;2.96;59.64;98609.84;5031398;28;20041;-68
2023/12/19 06:08:44;;;;;;;9.03;5.47;;;0.70;86.60;;;2.93;59.93;98615.28;5030910;28;20516;-68
2023/12/19 06:11:12;;;;;;;8.03;6.20;;;0.70;86.70;;;2.89;59.90;98619.00;5031045;28;20200;-68
2023/12/19 06:13:39;;;;;;;7.43;5.00;;;0.70;86.70;;;2.88;60.14;98625.22;5031373;28;20057;-68
2023/12/19 06:16:08;;;;;;;7.10;5.43;;;0.70;86.70;;;2.87;59.76;98626.13;5031235;28;20037;-68
2023/12/19 06:18:35;;;;;;;10.43;5.50;;;0.70;86.50;;;2.82;59.94;98636.09;5030405;28;20056;-69
2023/12/19 06:21:03;;;;;;;9.37;5.43;;;0.60;86.70;;;2.81;59.87;98635.25;5030946;28;20052;-69
2023/12/19 06:23:31;;;;;;;8.17;5.57;;;0.60;87.40;;;2.75;60.04;98635.59;5031131;28;20045;-68
2023/12/19 06:25:59;;;;;;;9.80;6.73;;;0.60;86.90;;;2.54;60.14;98645.56;5031060;28;20049;-68
2023/12/19 06:28:26;;;;;;;9.97;6.60;;;0.40;87.10;;;2.47;60.29;98649.47;5030728;28;20060;-69
2023/12/19 06:30:54;;;;;;;8.33;6.33;;;0.30;89.30;;;2.47;60.61;98646.84;5031216;28;20042;-68
2023/12/19 06:33:22;;;;;;;10.10;6.27;;;0.30;89.80;;;2.47;60.28;98644.22;5030922;28;20041;-68
2023/12/19 06:35:53;;;;;;;10.10;6.20;;;0.30;88.50;;;2.41;60.12;98645.41;5029575;28;20064;-69
2023/12/19 06:38:21;;;;;;;10.57;6.10;;;0.20;88.40;;;2.37;60.43;98641.25;5030579;28;20042;-68
2023/12/19 06:40:49;;;;;;;12.47;7.53;;;0.10;90.00;;;2.34;60.45;98639.63;5029878;28;20037;-69
2023/12/19 06:43:17;;;;;;;10.00;7.37;;;0.20;90.70;;;2.35;60.52;98627.34;5030271;28;20072;-68
2023/12/19 06:45:44;;;;;;;12.50;7.70;;;0.20;89.90;;;2.35;60.61;98616.84;5030598;28;20041;-68
2023/12/19 06:48:12;;;;;;;11.33;7.47;;;0.20;89.20;;;2.33;60.45;98611.66;5030711;28;20057;-68
2023/12/19 06:50:40;;;;;;;12.90;8.70;;;0.10;89.30;;;2.34;60.89;98600.19;5034079;28;20049;-68
2023/12/19 06:53:07;;;;;;;11.60;8.07;;;0.20;90.20;;;2.38;60.77;98592.16;5034540;28;20049;-67
2023/12/19 06:55:35;;;;;;;9.80;7.20;;;0.30;90.00;;;2.30;61.03;98613.59;5034963;28;20052;-68
2023/12/19 06:58:03;;;;;;;11.73;8.30;;;0.20;90.10;;;2.11;61.36;98616.41;5034490;28;20049;-69
2023/12/19 07:00:30;;;;;;;11.87;9.10;;;0.00;91.00;;;2.02;61.55;98609.88;5033472;28;20509;-69
2023/12/19 07:02:58;;;;;;;11.00;7.50;;;0.00;92.70;;;2.10;61.39;98609.47;5034553;28;20041;-68
2023/12/19 07:05:26;;;;;;;11.07;7.50;;;0.00;93.70;;;1.93;62.56;98608.59;5033535;28;20038;-70
2023/12/19 07:07:53;;;;;;;13.20;9.27;;;0.00;92.60;;;1.91;62.10;98622.75;5034131;28;20044;-69
2023/12/19 07:10:21;;;;;;;10.70;7.37;;;-0.10;93.60;;;1.94;62.59;98625.22;5034081;28;20045;-68
2023/12/19 07:12:49;;;;;;;12.77;7.97;;;0.00;94.40;;;2.02;62.28;98628.28;5034483;28;20060;-69
2023/12/19 07:15:16;;;;;;;9.03;7.37;;;0.00;93.90;;;2.09;61.85;98620.88;5034573;28;20068;-69
2023/12/19 07:17:46;;;;;;;11.93;7.73;;;0.10;92.70;;;2.12;61.98;98615.47;5034054;28;20256;-69
2023/12/19 07:20:13;;;;;;;13.23;7.80;;;0.20;92.70;;;2.16;61.93;98609.97;5034393;28;20500;-68
2023/12/19 07:22:41;;;;;;;15.13;9.07;;;0.10;91.70;;;2.20;61.80;98612.44;5032938;28;20041;-69
2023/12/19 07:25:09;;;;;;;17.87;10.27;;;0.20;92.00;;;2.26;61.79;98625.22;5034181;28;20065;-69
2023/12/19 07:27:37;;;;;;;12.83;8.27;;;0.20;90.80;;;2.26;61.34;98641.84;5033937;28;20052;-69
2023/12/19 07:30:09;;;;;;;12.50;7.23;;;0.20;91.10;;;2.29;61.35;98638.22;5034130;28;20485;-69
2023/12/19 07:32:36;;;;;;;14.10;8.80;;;0.20;91.00;;;2.26;61.53;98628.69;5033125;28;20152;-70
2023/12/19 07:35:05;;;;;;;11.70;7.97;;;0.20;91.10;;;2.24;61.61;98632.34;5033829;28;20053;-68
2023/12/19 07:37:33;;;;;;;13.37;8.30;;;0.10;91.00;;;2.27;61.22;98632.16;5034444;28;20497;-69
2023/12/19 07:40:05;;;;;;;12.43;9.23;;;0.20;91.40;;;2.22;61.21;98632.44;5032544;28;20060;-70
2023/12/19 07:42:33;;;;;;;12.17;8.73;;;0.20;91.30;;;2.24;61.83;98629.72;5032491;28;20520;-70
2023/12/19 07:45:02;;;;;;;12.40;8.07;;;0.20;91.40;;;2.16;61.55;98630.13;5030646;28;20042;-70
2023/12/19 07:47:30;;;;;;;13.80;8.43;;;0.10;91.10;;;2.09;61.75;98621.72;5028633;28;20060;-70
2023/12/19 07:49:58;;;;;;;13.17;8.73;;;0.00;92.10;;;2.07;61.78;98620.97;5026611;28;20049;-69
2023/12/19 07:52:29;;;;;;;11.77;8.13;;;0.00;92.80;;;1.95;62.59;98625.13;5028154;28;20048;-69
2023/12/19 07:54:56;;;;;;;13.27;8.83;;;-0.10;92.30;;;1.96;62.42;98608.44;5033893;28;20034;-68
2023/12/19 07:57:24;;;;;;;12.03;8.40;;;-0.10;94.30;;;2.03;62.32;98616.81;5033630;28;20489;-64
2023/12/19 07:59:52;;;;;;;16.50;9.30;;;0.00;94.30;;;2.04;62.89;98620.31;5033624;28;20429;-65
2023/12/19 08:02:19;;;;;;;16.53;10.30;;;0.10;94.40;;;2.14;62.51;98611.00;5032550;28;20139;-66
2023/12/19 08:04:47;;;;;;;11.77;7.97;;;0.20;94.10;;;2.18;62.77;98612.50;5033559;28;20050;-68
2023/12/19 08:07:14;;;;;;;14.03;8.90;;;0.30;93.30;;;2.06;62.80;98613.19;5033074;28;20052;-68
2023/12/19 08:09:42;;;;;;;19.07;9.97;;;0.20;93.20;;;2.10;62.69;98607.69;5033281;28;20049;-68
2023/12/19 08:12:10;;;;;;;15.27;8.60;;;0.20;95.10;;;2.03;63.85;98614.19;5033301;28;20497;-67
2023/12/19 08:14:38;;;;;;;12.20;8.63;;;0.20;93.50;;;2.05;63.32;98611.50;5033547;28;20030;-67
2023/12/19 08:17:05;;;;;;;18.07;10.77;;;0.20;95.70;;;2.11;63.39;98619.03;5031994;28;20042;-68
2023/12/19 08:19:33;;;;;;;15.83;9.30;;;0.30;94.60;;;2.15;63.04;98618.78;5033404;28;20052;-67
2023/12/19 08:22:01;;;;;;;16.00;9.50;;;0.40;94.60;;;2.28;63.28;98610.22;5033114;28;20049;-68
2023/12/19 08:24:28;;;;;;;15.70;9.50;;;0.50;94.80;;;2.35;63.10;98607.16;5033085;28;20444;-68
2023/12/19 08:26:56;;;;;;;14.70;9.60;;;0.50;93.30;;;2.20;63.71;98608.00;5033014;28;20052;-68
2023/12/19 08:29:24;;;;;;;18.20;10.63;;;0.40;93.50;;;2.25;63.61;98608.63;5033146;28;20045;-68
2023/12/19 08:31:52;;;;;;;17.63;10.43;;;0.50;94.50;;;2.40;63.44;98596.38;5032976;28;20551;-68
2023/12/19 08:34:19;;;;;;;13.17;9.07;;;0.60;94.50;;;2.49;63.10;98595.88;5033132;28;20046;-69
2023/12/19 08:36:47;;;;;;;14.40;9.03;;;0.60;94.00;;;2.56;62.74;98597.22;5032831;28;20127;-69
2023/12/19 08:39:15;;;;;;;17.70;8.70;;;0.70;92.50;;;2.57;63.10;98584.91;5033668;28;20049;-67
2023/12/19 08:41:48;;;;;;;13.77;9.37;;;0.70;93.10;;;2.64;62.70;98586.25;5032635;28;20049;-68
2023/12/19 08:44:15;;;;;;;15.50;10.20;;;0.70;93.00;;;2.45;63.14;98594.34;5032638;28;20049;-68
2023/12/19 08:46:44;;;;;;;13.90;9.03;;;0.60;92.50;;;2.40;63.37;98593.75;5032969;28;20659;-67
2023/12/19 08:49:12;;;;;;;14.97;9.10;;;0.60;92.80;;;2.29;63.63;98597.00;5032316;28;20053;-67
2023/12/19 08:51:47;;;;;;;16.97;8.57;;;0.50;93.60;;;2.36;63.72;98602.75;5032635;28;20040;-68
2023/12/19 08:54:14;;;;;;;13.70;8.53;;;0.60;94.30;;;2.33;63.98;98581.91;5032294;28;20432;-68
2023/12/19 08:56:42;;;;;;;17.20;8.70;;;0.50;94.50;;;2.44;64.04;98581.28;5032670;28;20049;-67
2023/12/19 08:59:10;;;;;;;13.77;9.60;;;0.70;94.20;;;2.38;64.20;98569.34;5032756;28;20049;-68
2023/12/19 09:01:38;;;;;;;14.57;10.20;;;0.60;94.00;;;2.44;63.43;98576.03;5032522;28;20416;-68
2023/12/19 09:04:06;;;;;;;18.33;11.27;;;0.70;95.40;;;2.36;64.15;98563.31;5032608;28;20045;-68
2023/12/19 09:06:35;;;;;;;15.77;9.67;;;0.70;94.10;;;2.31;64.20;98566.22;5032467;28;20045;-68
2023/12/19 09:09:02;;;;;;;14.97;9.77;;;0.60;94.00;;;2.43;64.16;98569.09;5031130;28;20049;-67
2023/12/19 09:11:33;;;;;;;17.80;9.83;;;0.70;94.70;;;2.42;64.18;98572.66;5031937;28;20421;-68
2023/12/19 09:14:01;;;;;;;14.37;8.63;;;0.70;94.20;;;2.49;64.19;98552.97;5032296;28;20089;-68
2023/12/19 09:16:29;;;;;;;15.00;9.13;;;0.80;94.80;;;2.49;64.03;98558.22;5032257;28;20528;-68
2023/12/19 09:18:58;;;;;;;14.93;10.30;;;0.80;93.20;;;2.47;64.30;98546.94;5031660;28;20049;-68
2023/12/19 09:21:26;;;;;;;18.27;10.33;;;0.80;94.40;;;2.61;64.08;98543.53;5032137;28;20501;-68
2023/12/19 09:23:54;;;;;;;17.30;9.10;;;0.90;95.10;;;2.72;63.87;98546.38;5032083;28;20045;-68
2023/12/19 09:26:22;;;;;;;15.77;9.33;;;1.10;93.20;;;2.73;63.88;98550.69;5031982;28;20049;-67
2023/12/19 09:28:49;;;;;;;14.07;9.23;;;1.00;92.10;;;2.63;63.99;98554.78;5030577;28;20048;-67
2023/12/19 09:31:19;;;;;;;15.07;9.20;;;0.90;92.80;;;2.55;63.94;98561.34;5031753;28;20489;-68
2023/12/19 09:33:47;;;;;;;15.10;10.57;;;0.90;93.40;;;2.64;63.80;98562.59;5032050;28;20036;-67
2023/12/19 09:36:22;;;;;;;16.33;10.43;;;0.90;93.40;;;2.64;64.24;98569.66;5031159;28;20429;-68
2023/12/19 09:38:50;;;;;;;13.70;8.97;;;0.90;94.40;;;2.47;64.58;98571.44;5023547;28;20049;-67
2023/12/19 09:41:18;;;;;;;14.43;9.20;;;0.80;93.50;;;2.37;64.64;98575.53;5030792;28;20420;-68
2023/12/19 09:43:45;;;;;;;16.40;10.23;;;0.70;95.10;;;2.28;64.83;98583.94;5031426;28;20050;-68
2023/12/19 09:46:13;;;;;;;16.83;11.20;;;0.60;95.50;;;2.24;64.75;98583.25;5031067;28;20046;-68
2023/12/19 09:48:45;;;;;;;16.00;9.60;;;0.60;96.20;;;2.21;65.16;98577.31;5031502;28;20041;-68
2023/12/19 09:51:26;;;;;;;16.90;11.33;;;0.60;96.30;;;2.27;65.00;98571.72;5030443;28;20061;-68
2023/12/19 09:53:55;;;;;;;23.70;12.40;;;0.60;96.20;;;2.15;65.43;98565.38;5008641;28;20041;-67
2023/12/19 09:56:23;;;;;;;17.83;10.57;;;0.60;95.50;;;2.13;65.19;98549.72;5031795;28;20045;-68
2023/12/19 09:58:53;;;;;;;16.23;9.53;;;0.50;97.40;;;2.17;65.49;98545.13;5030218;28;20048;-68
2023/12/19 10:01:21;;;;;;;16.17;11.00;;;0.50;96.30;;;2.10;65.52;98539.38;5029925;28;20052;-68
2023/12/19 10:03:55;;;;;;;19.70;11.27;;;0.50;97.00;;;2.17;65.71;98548.63;5031739;28;20425;-68
2023/12/19 10:06:23;;;;;;;22.23;11.95;;;0.50;97.80;;;2.25;65.45;98542.94;5030539;28;20208;-68
2023/12/19 10:08:54;;;;;;;17.93;11.40;;;0.50;97.40;;;2.22;65.41;98535.22;5030991;28;20045;-68
2023/12/19 10:11:22;;;;;;;20.07;11.70;;;0.60;97.30;;;2.31;65.47;98545.19;5030946;28;20481;-67
2023/12/19 10:13:50;;;;;;;18.23;11.03;;;0.60;97.60;;;2.32;65.07;98546.88;5031683;28;20412;-68
2023/12/19 10:16:18;;;;;;;14.23;8.83;;;0.70;97.60;;;2.24;65.41;98546.47;5031494;28;20049;-68
2023/12/19 10:19:00;;;;;;;14.70;9.10;;;0.60;96.60;;;2.17;65.44;98553.00;5024172;28;20034;-68
2023/12/19 10:21:28;;;;;;;14.60;8.87;;;0.60;97.30;;;2.21;65.43;98549.28;5031501;28;20056;-68
2023/12/19 10:24:11;;;;;;;18.87;10.73;;;0.60;97.30;;;2.29;65.70;98535.72;5030049;28;20519;-68
2023/12/19 10:26:39;;;;;;;17.43;10.67;;;0.60;97.00;;;2.17;65.53;98534.59;5031590;28;20053;-68
2023/12/19 10:29:07;;;;;;;14.73;8.50;;;0.50;96.60;;;2.10;65.85;98523.63;5030959;28;20045;-67
2023/12/19 10:31:34;;;;;;;16.67;9.80;;;0.50;97.70;;;2.07;66.16;98518.53;5031139;28;20049;-68